Time;durP1;ratioP1;P1;durP2;ratioP2;P2;SDS_P1;SDS_P2;PMS_P1;PMS_P2;Temp;Humidity;BMP_temperature;BMP_pressure;BME280_temperature;BME280_humidity;BME280_pressure;Samples;Min_cycle;Max_cycle;Signal;HPM_P1;HPM_P2
2022/01/15 00:01:05;;;;;;;93.80;30.95;;;;;;;2.39;100.00;103329.19;5031056;28;20050;-80
2022/01/15 00:03:31;;;;;;;82.22;30.23;;;;;;;2.38;100.00;103323.09;5014620;28;20124;-80
2022/01/15 00:05:57;;;;;;;99.50;30.88;;;;;;;2.38;100.00;103324.81;5032428;28;20476;-80
2022/01/15 00:08:23;;;;;;;76.15;30.95;;;;;;;2.39;100.00;103324.88;5030999;28;20079;-80
2022/01/15 00:10:49;;;;;;;92.85;31.58;;;;;;;2.41;100.00;103325.84;5030871;28;20489;-80
2022/01/15 00:13:54;;;;;;;86.90;30.55;;;;;;;2.39;100.00;103322.25;5030992;28;20025;-80
2022/01/15 00:16:10;;;;;;;95.15;31.73;;;;;;;2.36;100.00;103320.38;5032674;28;20049;-80
2022/01/15 00:18:46;;;;;;;83.28;30.83;;;;;;;2.33;100.00;103320.22;5046864;28;20088;-80
2022/01/15 00:21:14;;;;;;;86.53;30.85;;;;;;;2.31;100.00;103327.09;5032563;28;20068;-80
2022/01/15 00:23:40;;;;;;;87.15;28.40;;;;;;;2.27;100.00;103322.50;5030748;28;20029;-80
2022/01/15 00:26:06;;;;;;;85.47;30.30;;;;;;;2.29;100.00;103317.38;5035791;28;20037;-80
2022/01/15 00:28:31;;;;;;;80.13;30.38;;;;;;;2.25;100.00;103303.25;5017728;28;20039;-80
2022/01/15 00:30:57;;;;;;;85.50;29.48;;;;;;;2.32;100.00;103307.94;5050608;28;20334;-80
2022/01/15 00:33:24;;;;;;;104.78;30.42;;;;;;;2.27;100.00;103306.81;5034058;28;20053;-80
2022/01/15 00:35:50;;;;;;;112.72;28.90;;;;;;;2.23;100.00;103309.22;5034035;28;20052;-80
2022/01/15 00:38:15;;;;;;;70.55;28.27;;;;;;;2.22;100.00;103313.53;5050511;28;20116;-80
2022/01/15 00:40:41;;;;;;;110.05;29.80;;;;;;;2.21;100.00;103311.75;5051884;28;20036;-80
2022/01/15 00:43:06;;;;;;;86.68;28.30;;;;;;;2.20;100.00;103306.44;5050557;28;20044;-81
2022/01/15 00:45:33;;;;;;;62.80;25.80;;;;;;;2.19;100.00;103295.06;5033735;28;20178;-81
2022/01/15 00:47:59;;;;;;;82.50;25.73;;;;;;;2.17;100.00;103287.97;5033910;28;20056;-80
2022/01/15 00:50:25;;;;;;;93.72;27.77;;;;;;;2.18;100.00;103287.13;5050258;28;20048;-80
2022/01/15 00:52:50;;;;;;;88.70;28.27;;;;;;;2.17;100.00;103286.25;5051734;28;20357;-80
2022/01/15 00:55:18;;;;;;;79.70;29.15;;;;;;;2.11;100.00;103280.72;5025581;28;20096;-80
2022/01/15 00:57:43;;;;;;;84.10;28.05;;;;;;;2.10;100.00;103286.75;5029623;28;20041;-80
2022/01/15 01:00:13;;;;;;;90.05;27.70;;;;;;;2.07;100.00;103269.19;5013807;28;20040;-80
2022/01/15 01:02:39;;;;;;;100.88;29.33;;;;;;;2.07;100.00;103278.75;5032056;28;20469;-80
2022/01/15 01:05:05;;;;;;;88.65;28.65;;;;;;;2.08;100.00;103277.97;5013774;28;20052;-80
2022/01/15 01:07:31;;;;;;;85.28;30.00;;;;;;;2.09;100.00;103275.41;5030334;28;20032;-80
2022/01/15 01:12:56;;;;;;;76.80;28.27;;;;;;;2.09;100.00;103279.75;5029926;28;20041;-80
2022/01/15 01:21:33;;;;;;;85.47;29.73;;;;;;;2.08;100.00;103267.50;5031100;28;20045;-80
2022/01/15 01:23:32;;;;;;;75.45;28.75;;;;;;;2.09;100.00;103267.56;5027174;28;20497;-80
2022/01/15 01:26:06;;;;;;;74.32;30.08;;;;;;;2.05;100.00;103263.00;5031239;28;20040;-79
2022/01/15 01:28:43;;;;;;;72.50;27.13;;;;;;;2.02;100.00;103261.94;5050547;28;20522;-79
2022/01/15 01:31:19;;;;;;;80.72;25.98;;;;;;;1.98;100.00;103254.75;5034255;28;20090;-80
2022/01/15 01:33:46;;;;;;;77.18;28.52;;;;;;;1.98;100.00;103259.97;5050372;28;20033;-80
2022/01/15 01:36:23;;;;;;;79.90;28.23;;;;;;;1.91;100.00;103253.56;5050645;28;20507;-80
2022/01/15 01:38:55;;;;;;;81.55;28.35;;;;;;;1.94;100.00;103256.31;5048879;28;20389;-79
2022/01/15 01:41:22;;;;;;;73.22;27.45;;;;;;;1.91;100.00;103256.16;5050748;28;20630;-79
2022/01/15 01:48:45;;;;;;;81.25;28.90;;;;;;;1.86;100.00;103248.06;5049933;28;20044;-79
2022/01/15 01:51:23;;;;;;;81.53;27.48;;;;;;;1.87;100.00;103244.63;5050109;28;20040;-80
2022/01/15 01:53:50;;;;;;;82.53;27.73;;;;;;;1.88;100.00;103241.22;5048856;28;20110;-79
2022/01/15 01:56:15;;;;;;;80.85;28.75;;;;;;;1.90;100.00;103243.91;5049840;28;20052;-80
2022/01/15 01:58:41;;;;;;;94.68;27.70;;;;;;;1.91;100.00;103237.88;5048608;28;20099;-80
2022/01/15 02:01:07;;;;;;;79.22;26.52;;;;;;;1.90;100.00;103223.91;5050178;28;20162;-80
2022/01/15 02:03:32;;;;;;;73.57;27.77;;;;;;;1.91;100.00;103224.81;5031825;28;20079;-80
2022/01/15 02:05:58;;;;;;;83.88;28.23;;;;;;;1.92;100.00;103229.19;5050262;28;20090;-79
2022/01/15 02:08:23;;;;;;;102.05;26.80;;;;;;;1.89;100.00;103222.09;5031688;28;20044;-79
2022/01/15 02:10:49;;;;;;;72.40;25.88;;;;;;;1.86;100.00;103227.19;5048779;28;20263;-80
2022/01/15 02:13:15;;;;;;;72.10;25.65;;;;;;;1.88;100.00;103229.84;5050043;28;20021;-80
2022/01/15 02:15:40;;;;;;;75.95;25.88;;;;;;;1.87;100.00;103239.41;5048302;28;20060;-80
2022/01/15 02:18:06;;;;;;;76.63;26.55;;;;;;;1.88;100.00;103235.06;5050081;28;20043;-80
2022/01/15 02:25:55;;;;;;;76.38;25.23;;;;;;;1.91;100.00;103228.31;5047385;28;20037;-79
2022/01/15 02:28:23;;;;;;;65.00;24.33;;;;;;;1.88;100.00;103219.41;5030232;28;20060;-79
2022/01/15 02:30:57;;;;;;;67.65;25.48;;;;;;;1.86;100.00;103211.50;5028583;28;20017;-79
2022/01/15 02:33:24;;;;;;;66.82;26.60;;;;;;;1.83;100.00;103207.81;5030248;28;20037;-79
2022/01/15 02:35:50;;;;;;;79.55;27.23;;;;;;;1.84;100.00;103207.91;5028530;28;20120;-79
2022/01/15 02:38:15;;;;;;;67.35;25.35;;;;;;;1.87;100.00;103217.63;5030112;28;20453;-79
2022/01/15 02:40:42;;;;;;;77.53;28.35;;;;;;;1.86;100.00;103210.59;5028471;28;20106;-79
2022/01/15 02:43:11;;;;;;;74.05;24.88;;;;;;;1.88;100.00;103201.09;5028503;28;20405;-79
2022/01/15 02:45:41;;;;;;;73.63;26.08;;;;;;;1.86;100.00;103194.94;5028438;28;20041;-79
2022/01/15 02:48:15;;;;;;;75.90;24.52;;;;;;;1.86;100.00;103190.59;5012795;28;20056;-79
2022/01/15 02:50:42;;;;;;;71.97;25.75;;;;;;;1.84;100.00;103189.63;5028444;28;20124;-79
2022/01/15 02:53:09;;;;;;;73.45;25.77;;;;;;;1.82;100.00;103182.50;5029672;28;20036;-79
2022/01/15 02:55:34;;;;;;;71.72;25.15;;;;;;;1.81;100.00;103173.78;5039569;28;20041;-79
2022/01/15 02:58:00;;;;;;;72.60;26.13;;;;;;;1.83;100.00;103168.63;5048292;28;20488;-79
2022/01/15 03:00:27;;;;;;;71.95;24.27;;;;;;;1.81;100.00;103167.66;5047963;28;20053;-79
2022/01/15 03:02:53;;;;;;;82.35;26.55;;;;;;;1.78;100.00;103159.66;5048191;28;20394;-79
2022/01/15 03:05:20;;;;;;;79.85;28.88;;;;;;;1.78;100.00;103171.03;5049504;28;20049;-79
2022/01/15 03:07:46;;;;;;;82.55;28.08;;;;;;;1.80;100.00;103160.63;5048058;28;20041;-79
2022/01/15 03:10:12;;;;;;;90.00;30.55;;;;;;;1.78;100.00;103157.03;5048039;28;20091;-79
2022/01/15 03:12:38;;;;;;;103.15;30.95;;;;;;;1.76;100.00;103149.16;5048194;28;20448;-79
2022/01/15 03:15:06;;;;;;;85.85;30.40;;;;;;;1.77;100.00;103153.53;5047779;28;20065;-80
2022/01/15 03:17:32;;;;;;;86.57;30.23;;;;;;;1.75;100.00;103143.81;5048323;28;20064;-79
2022/01/15 03:19:59;;;;;;;103.35;31.45;;;;;;;1.76;100.00;103143.03;5048117;28;20056;-79
2022/01/15 03:22:25;;;;;;;91.00;31.60;;;;;;;1.72;100.00;103137.63;5052969;28;20120;-79
2022/01/15 03:24:50;;;;;;;93.90;29.20;;;;;;;1.74;100.00;103147.28;5051754;28;20021;-79
2022/01/15 03:27:17;;;;;;;89.38;31.38;;;;;;;1.76;100.00;103143.91;5052920;28;20484;-79
2022/01/15 03:29:43;;;;;;;103.13;30.25;;;;;;;1.78;100.00;103134.44;5051586;28;20136;-79
2022/01/15 03:32:09;;;;;;;93.35;31.15;;;;;;;1.79;100.00;103140.56;5051803;28;20041;-79
2022/01/15 03:34:35;;;;;;;89.13;31.52;;;;;;;1.80;100.00;103140.63;5051171;28;20510;-79
2022/01/15 03:37:01;;;;;;;94.28;32.88;;;;;;;1.81;100.00;103139.81;5051451;28;20041;-79
2022/01/15 03:39:27;;;;;;;90.57;33.88;;;;;;;1.79;100.00;103140.56;5052744;28;20037;-79
2022/01/15 03:41:53;;;;;;;83.97;30.60;;;;;;;1.74;100.00;103124.66;5051369;28;20455;-79
2022/01/15 03:44:18;;;;;;;90.30;30.45;;;;;;;1.77;100.00;103139.59;5051337;28;20037;-79
2022/01/15 03:46:44;;;;;;;77.00;26.67;;;;;;;1.75;100.00;103134.25;5051373;28;20029;-79
2022/01/15 03:49:09;;;;;;;87.18;27.45;;;;;;;1.74;100.00;103135.09;5052555;28;20389;-79
2022/01/15 03:51:35;;;;;;;78.38;28.45;;;;;;;1.68;100.00;103126.94;5034697;28;20031;-79
2022/01/15 03:54:00;;;;;;;79.30;28.77;;;;;;;1.65;100.00;103134.63;5051135;28;20041;-79
2022/01/15 03:56:26;;;;;;;82.03;28.08;;;;;;;1.64;100.00;103120.66;5035189;28;20204;-79
2022/01/15 03:58:51;;;;;;;83.57;28.13;;;;;;;1.64;100.00;103120.66;5014451;28;20103;-79
2022/01/15 04:01:17;;;;;;;125.20;33.78;;;;;;;1.63;100.00;103126.72;5032601;28;20116;-79
2022/01/15 04:03:42;;;;;;;78.35;27.98;;;;;;;1.65;100.00;103124.16;5031274;28;20430;-79
2022/01/15 04:06:08;;;;;;;78.85;28.60;;;;;;;1.60;100.00;103121.31;5032421;28;20042;-79
2022/01/15 04:08:33;;;;;;;81.22;27.23;;;;;;;1.59;100.00;103116.94;5032378;28;20041;-79
2022/01/15 04:10:59;;;;;;;75.13;26.13;;;;;;;1.58;100.00;103109.91;5032362;28;20049;-79
2022/01/15 04:13:24;;;;;;;80.40;27.63;;;;;;;1.59;100.00;103106.47;5032170;28;20033;-80
2022/01/15 04:15:52;;;;;;;91.18;28.98;;;;;;;1.56;100.00;103100.19;5031972;28;20140;-79
2022/01/15 04:18:21;;;;;;;77.97;29.67;;;;;;;1.55;100.00;103096.69;5030671;28;20381;-79
2022/01/15 04:20:46;;;;;;;85.18;29.67;;;;;;;1.55;100.00;103096.69;5032143;28;20037;-79
2022/01/15 04:23:12;;;;;;;73.40;27.05;;;;;;;1.55;100.00;103094.06;5030782;28;20052;-79
2022/01/15 04:25:37;;;;;;;65.68;26.55;;;;;;;1.56;100.00;103090.66;5030415;28;20037;-79
2022/01/15 04:28:08;;;;;;;82.18;28.90;;;;;;;1.57;100.00;103089.84;5050143;28;20041;-79
2022/01/15 04:30:34;;;;;;;67.13;25.25;;;;;;;1.59;100.00;103093.44;5050709;28;20066;-79
2022/01/15 04:33:00;;;;;;;61.85;25.73;;;;;;;1.60;100.00;103089.97;5050790;28;20124;-79
2022/01/15 04:35:25;;;;;;;68.68;23.60;;;;;;;1.62;100.00;103090.06;5033886;28;20128;-80
2022/01/15 04:37:55;;;;;;;58.00;24.20;;;;;;;1.61;100.00;103089.19;5033563;28;20037;-79
2022/01/15 04:40:20;;;;;;;74.05;25.75;;;;;;;1.63;100.00;103089.25;5051811;28;20044;-80
2022/01/15 04:42:46;;;;;;;73.85;25.67;;;;;;;1.61;100.00;103078.72;5050419;28;20045;-80
2022/01/15 04:45:12;;;;;;;63.53;24.77;;;;;;;1.64;100.00;103078.00;5050233;28;20100;-80
2022/01/15 04:47:38;;;;;;;64.72;24.25;;;;;;;1.65;100.00;103078.03;5050234;28;20052;-79
2022/01/15 04:50:07;;;;;;;64.25;25.45;;;;;;;1.66;100.00;103074.63;5051597;28;20396;-80
2022/01/15 04:52:34;;;;;;;69.68;25.60;;;;;;;1.65;100.00;103075.44;5050131;28;20037;-80
2022/01/15 04:55:01;;;;;;;72.60;26.95;;;;;;;1.65;100.00;103078.03;5050977;28;20039;-80
2022/01/15 04:57:28;;;;;;;63.00;24.83;;;;;;;1.64;100.00;103068.44;5051515;28;20043;-80
2022/01/15 04:59:53;;;;;;;65.25;23.95;;;;;;;1.64;100.00;103067.53;5049815;28;20048;-80
2022/01/15 05:02:19;;;;;;;58.95;23.27;;;;;;;1.66;100.00;103068.53;5033353;28;20036;-80
2022/01/15 05:04:44;;;;;;;59.33;20.90;;;;;;;1.69;100.00;103066.06;5051066;28;20108;-80
2022/01/15 05:07:10;;;;;;;57.60;23.13;;;;;;;1.66;100.00;103069.41;5000397;28;20417;-80
2022/01/15 05:09:35;;;;;;;59.92;24.10;;;;;;;1.68;100.00;103065.16;5049382;28;20128;-80
2022/01/15 05:12:10;;;;;;;58.83;24.10;;;;;;;1.69;100.00;103061.72;5033088;28;20057;-80
2022/01/15 05:14:37;;;;;;;70.60;27.33;;;;;;;1.71;100.00;103061.81;5049472;28;20036;-80
2022/01/15 05:17:03;;;;;;;68.85;25.90;;;;;;;1.69;100.00;103051.28;5049455;28;20049;-80
2022/01/15 05:19:29;;;;;;;74.47;28.10;;;;;;;1.72;100.00;103051.41;5049550;28;20519;-80
2022/01/15 05:21:56;;;;;;;75.70;26.67;;;;;;;1.76;100.00;103054.22;5050863;28;20044;-80
2022/01/15 05:24:25;;;;;;;67.70;24.95;;;;;;;1.77;100.00;103049.03;5045359;28;20044;-80
2022/01/15 05:26:51;;;;;;;59.60;25.33;;;;;;;1.78;100.00;103034.25;5040408;28;20114;-80
2022/01/15 05:29:16;;;;;;;64.45;25.17;;;;;;;1.79;100.00;103036.06;5005547;28;20473;-80
2022/01/15 05:31:42;;;;;;;67.05;26.42;;;;;;;1.81;100.00;103040.53;5032259;28;20489;-80
2022/01/15 05:34:07;;;;;;;67.40;26.88;;;;;;;1.78;100.00;103031.66;5039159;28;20037;-80
2022/01/15 05:36:33;;;;;;;75.25;27.77;;;;;;;1.77;100.00;103033.38;5039120;28;20572;-80
2022/01/15 05:38:58;;;;;;;73.90;27.60;;;;;;;1.78;100.00;103024.72;5038551;28;20067;-80
2022/01/15 05:41:24;;;;;;;76.93;26.52;;;;;;;1.80;100.00;103014.34;5020730;28;20049;-80
2022/01/15 05:43:49;;;;;;;73.47;28.33;;;;;;;1.80;100.00;103014.34;5039016;28;20049;-80
2022/01/15 05:46:15;;;;;;;82.72;29.83;;;;;;;1.83;100.00;103010.19;5031713;28;20061;-80
2022/01/15 05:48:40;;;;;;;82.30;30.20;;;;;;;1.83;100.00;103002.34;5024627;28;20404;-80
2022/01/15 05:51:06;;;;;;;74.82;30.05;;;;;;;1.84;100.00;103000.63;5038220;28;20045;-80
2022/01/15 05:53:31;;;;;;;85.88;31.13;;;;;;;1.85;100.00;102997.16;5023131;28;20033;-80
2022/01/15 05:55:56;;;;;;;92.32;32.58;;;;;;;1.88;100.00;102999.91;5037484;28;20052;-80
2022/01/15 05:58:22;;;;;;;86.18;30.30;;;;;;;1.89;100.00;102996.50;5022190;28;20033;-81
2022/01/15 06:00:47;;;;;;;94.60;33.15;;;;;;;1.90;100.00;102993.06;5029986;28;20033;-80
2022/01/15 06:03:13;;;;;;;82.93;30.98;;;;;;;1.88;100.00;102994.69;5031561;28;20495;-80
2022/01/15 06:05:38;;;;;;;82.50;29.63;;;;;;;1.90;100.00;102995.66;5037733;28;20037;-80
2022/01/15 06:08:04;;;;;;;74.60;27.20;;;;;;;1.88;100.00;102993.00;5038315;28;20045;-80
2022/01/15 06:10:30;;;;;;;74.38;29.40;;;;;;;1.85;100.00;102997.16;5024497;28;20029;-80
2022/01/15 06:12:56;;;;;;;77.72;27.73;;;;;;;1.85;100.00;102995.44;5040068;28;20330;-80
2022/01/15 06:15:21;;;;;;;75.15;28.92;;;;;;;1.84;100.00;102985.81;5021630;28;20033;-80
2022/01/15 06:17:47;;;;;;;68.80;25.83;;;;;;;1.85;100.00;102990.22;5038745;28;20068;-80
2022/01/15 06:20:14;;;;;;;80.05;29.90;;;;;;;1.84;100.00;102988.44;5037207;28;20030;-80
2022/01/15 06:22:39;;;;;;;76.30;30.25;;;;;;;1.83;100.00;102988.34;5038846;28;20029;-80
2022/01/15 06:25:05;;;;;;;79.07;30.33;;;;;;;1.82;100.00;102986.56;5041050;28;20414;-80
2022/01/15 06:27:31;;;;;;;79.70;29.25;;;;;;;1.82;100.00;102989.19;5038378;28;20041;-80
2022/01/15 06:29:57;;;;;;;88.95;31.42;;;;;;;1.82;100.00;102983.97;5036742;28;20462;-80
2022/01/15 06:32:25;;;;;;;79.15;31.70;;;;;;;1.83;100.00;102984.03;5038063;28;20368;-80
2022/01/15 06:34:50;;;;;;;92.57;33.33;;;;;;;1.82;100.00;102976.13;5040332;28;20488;-80
2022/01/15 06:37:16;;;;;;;87.13;34.15;;;;;;;1.82;100.00;102979.63;5027999;28;20062;-80
2022/01/15 06:39:41;;;;;;;87.60;33.42;;;;;;;1.83;100.00;102970.06;5021352;28;20039;-80
2022/01/15 06:42:07;;;;;;;99.68;34.28;;;;;;;1.85;100.00;102968.44;5021186;28;20135;-80
2022/01/15 06:44:32;;;;;;;100.25;35.80;;;;;;;1.86;100.00;102968.50;5040848;28;20362;-80
2022/01/15 06:46:58;;;;;;;100.18;34.83;;;;;;;1.83;100.00;102959.63;5039064;28;20049;-80
2022/01/15 06:49:23;;;;;;;100.63;33.92;;;;;;;1.88;100.00;102968.56;5040543;28;20059;-80
2022/01/15 06:51:49;;;;;;;87.43;33.92;;;;;;;1.87;100.00;102965.06;5022698;28;20127;-80
2022/01/15 06:54:14;;;;;;;82.78;32.53;;;;;;;1.88;100.00;102968.56;5036979;28;20025;-80
2022/01/15 06:56:40;;;;;;;102.88;34.92;;;;;;;1.87;100.00;102959.84;5021962;28;20471;-80
2022/01/15 06:59:05;;;;;;;96.60;32.03;;;;;;;1.88;100.00;102963.34;5041044;28;20049;-80
2022/01/15 07:01:31;;;;;;;73.30;29.88;;;;;;;1.83;100.00;102952.69;5043815;28;20048;-80
2022/01/15 07:03:56;;;;;;;93.88;28.38;;;;;;;1.84;100.00;102962.31;5042711;28;20434;-80
2022/01/15 07:06:22;;;;;;;64.88;27.83;;;;;;;1.79;100.00;102950.75;5041662;28;20051;-80
2022/01/15 07:08:47;;;;;;;86.10;27.73;;;;;;;1.79;100.00;102968.16;5041986;28;20124;-80
2022/01/15 07:11:13;;;;;;;93.30;28.35;;;;;;;1.75;100.00;102968.81;5040432;28;20116;-80
2022/01/15 07:13:38;;;;;;;76.57;25.25;;;;;;;1.75;100.00;102971.41;5043263;28;20072;-80
2022/01/15 07:16:04;;;;;;;111.07;26.48;;;;;;;1.70;100.00;102963.34;5040205;28;20469;-80
2022/01/15 07:18:29;;;;;;;77.90;27.70;;;;;;;1.68;100.00;102978.06;5040521;28;20061;-80
2022/01/15 07:20:55;;;;;;;97.70;26.88;;;;;;;1.65;100.00;102965.75;5039826;28;20583;-80
2022/01/15 07:23:21;;;;;;;71.93;24.38;;;;;;;1.63;100.00;102964.78;5044436;28;20033;-80
2022/01/15 07:25:46;;;;;;;72.57;28.10;;;;;;;1.63;100.00;102971.72;5024514;28;20508;-80
2022/01/15 07:28:12;;;;;;;87.18;28.70;;;;;;;1.61;100.00;102968.16;5039418;28;20041;-80
2022/01/15 07:30:38;;;;;;;108.40;29.80;;;;;;;1.61;100.00;102968.16;5026729;28;20056;-80
2022/01/15 07:33:03;;;;;;;108.28;29.05;;;;;;;1.58;100.00;102960.16;5043007;28;20051;-80
2022/01/15 07:35:29;;;;;;;85.28;29.35;;;;;;;1.56;100.00;102961.78;5002054;28;20064;-80
2022/01/15 07:37:56;;;;;;;98.97;30.42;;;;;;;1.52;100.00;102963.38;5037487;28;20112;-80
2022/01/15 07:40:22;;;;;;;100.93;31.02;;;;;;;1.52;100.00;102973.81;5041631;28;20444;-80
2022/01/15 07:42:47;;;;;;;128.18;30.00;;;;;;;1.52;100.00;102972.91;5043786;28;20077;-80
2022/01/15 07:45:15;;;;;;;103.93;30.77;;;;;;;1.48;100.00;102978.00;5043729;28;20393;-80
2022/01/15 07:47:42;;;;;;;77.90;27.30;;;;;;;1.47;100.00;102975.28;5042176;28;20029;-80
2022/01/15 07:50:11;;;;;;;114.97;30.90;;;;;;;1.45;100.00;102967.38;5025446;28;20476;-80
2022/01/15 07:52:36;;;;;;;110.47;31.95;;;;;;;1.45;100.00;102972.59;5042892;28;20064;-80
2022/01/15 07:55:03;;;;;;;98.20;26.92;;;;;;;1.44;100.00;102968.22;5028245;28;20080;-80
2022/01/15 07:57:29;;;;;;;103.43;36.83;;;;;;;1.47;100.00;102975.28;5041512;28;20029;-80
2022/01/15 07:59:55;;;;;;;85.65;27.23;;;;;;;1.46;100.00;102981.34;5043079;28;20055;-80
2022/01/15 08:02:20;;;;;;;103.95;30.08;;;;;;;1.44;100.00;102965.59;5041655;28;20021;-80
2022/01/15 08:04:46;;;;;;;101.30;26.35;;;;;;;1.47;100.00;102972.69;5041659;28;20426;-80
2022/01/15 08:07:11;;;;;;;79.38;25.75;;;;;;;1.49;100.00;102968.44;5041623;28;20091;-80
2022/01/15 08:09:37;;;;;;;167.68;27.65;;;;;;;1.48;100.00;102969.25;5022916;28;20068;-80
2022/01/15 08:12:04;;;;;;;96.82;25.27;;;;;;;1.46;100.00;102966.56;5041934;28;20123;-80
2022/01/15 08:14:29;;;;;;;103.85;25.35;;;;;;;1.41;100.00;102965.44;5031025;28;20341;-80
2022/01/15 08:16:55;;;;;;;151.95;24.65;;;;;;;1.41;100.00;102961.91;5014237;28;20056;-82
2022/01/15 08:19:20;;;;;;;74.30;22.67;;;;;;;1.38;100.00;102967.88;5031068;28;20037;-81
2022/01/15 08:21:46;;;;;;;170.27;24.20;;;;;;;1.32;100.00;102965.00;5014461;28;20425;-80
2022/01/15 08:24:12;;;;;;;118.53;19.90;;;;;;;1.29;100.00;102960.50;5014386;28;20053;-80
2022/01/15 08:26:37;;;;;;;80.57;21.45;;;;;;;1.29;100.00;102964.84;5018463;28;20044;-81
2022/01/15 08:29:03;;;;;;;110.32;20.05;;;;;;;1.24;100.00;102964.59;5014182;28;20075;-80
2022/01/15 08:31:28;;;;;;;56.13;16.55;;;;;;;1.20;100.00;102954.81;4981575;28;20072;-80
2022/01/15 08:33:54;;;;;;;108.00;20.65;;;;;;;1.21;100.00;102964.47;5013885;28;20049;-80
2022/01/15 08:36:20;;;;;;;93.70;17.02;;;;;;;1.22;100.00;102965.34;4997728;28;20030;-80
2022/01/15 08:38:46;;;;;;;71.85;18.48;;;;;;;1.20;100.00;102965.25;5029745;28;20457;-81
2022/01/15 08:41:13;;;;;;;67.50;17.90;;;;;;;1.21;100.00;102967.06;5013227;28;20060;-81
2022/01/15 08:43:39;;;;;;;94.68;17.70;;;;;;;1.21;100.00;102966.16;4981277;28;20424;-81
2022/01/15 08:46:05;;;;;;;59.28;15.60;;;;;;;1.22;100.00;102966.22;5013953;28;20112;-80
2022/01/15 08:48:30;;;;;;;82.30;16.25;;;;;;;1.21;100.00;102968.75;5013681;28;20125;-81
2022/01/15 08:50:56;;;;;;;88.07;16.33;;;;;;;1.21;100.00;102968.75;4997707;28;20029;-81
2022/01/15 08:53:21;;;;;;;59.47;15.25;;;;;;;1.22;100.00;102970.56;4997586;28;20121;-81
2022/01/15 08:55:48;;;;;;;86.75;15.85;;;;;;;1.21;100.00;102960.94;5029729;28;20397;-81
2022/01/15 08:58:14;;;;;;;76.10;15.18;;;;;;;1.22;100.00;102957.50;5013498;28;20059;-81
2022/01/15 09:00:40;;;;;;;110.88;15.63;;;;;;;1.17;100.00;102951.16;4997181;28;20037;-81
2022/01/15 09:03:07;;;;;;;61.30;16.05;;;;;;;1.15;100.00;102960.63;5014016;28;20029;-81
2022/01/15 09:05:36;;;;;;;105.15;15.10;;;;;;;1.14;100.00;102964.97;5013443;28;20035;-81
2022/01/15 09:08:03;;;;;;;83.95;16.88;;;;;;;1.11;100.00;102956.94;5029982;28;20060;-81
2022/01/15 09:10:29;;;;;;;73.88;15.30;;;;;;;1.11;100.00;102961.28;5030312;28;20480;-81
2022/01/15 09:12:54;;;;;;;37.58;15.60;;;;;;;1.13;100.00;102959.66;4980988;28;20073;-81
2022/01/15 09:15:21;;;;;;;110.93;17.08;;;;;;;1.11;100.00;102962.16;5029502;28;20137;-82
2022/01/15 09:17:47;;;;;;;58.92;15.55;;;;;;;1.10;100.00;102959.50;5012664;28;20072;-81
2022/01/15 09:20:13;;;;;;;43.88;15.27;;;;;;;1.07;100.00;102957.63;5029990;28;20420;-81
2022/01/15 09:22:38;;;;;;;45.08;16.38;;;;;;;1.05;100.00;102956.66;5029789;28;20044;-81
2022/01/15 09:25:04;;;;;;;56.00;16.27;;;;;;;1.00;100.00;102939.88;5029783;28;20021;-81
2022/01/15 09:30:15;;;;;;;47.45;16.52;;;;;;;0.98;100.00;102938.91;5030408;28;20132;-81
2022/01/15 09:32:53;;;;;;;66.32;15.75;;;;;;;0.92;100.00;102942.09;5013100;28;20099;-81
2022/01/15 09:35:21;;;;;;;62.55;16.40;;;;;;;0.90;100.00;102941.13;5029845;28;20038;-81
2022/01/15 09:37:49;;;;;;;54.85;15.88;;;;;;;0.91;100.00;102942.00;5029634;28;20037;-81
2022/01/15 09:40:16;;;;;;;86.82;16.33;;;;;;;0.88;100.00;102932.31;5012904;28;20175;-82
2022/01/15 09:42:44;;;;;;;60.65;17.08;;;;;;;0.90;100.00;102927.19;5013668;28;20021;-81
2022/01/15 09:45:11;;;;;;;77.45;17.48;;;;;;;0.90;100.00;102932.41;5030740;28;20041;-81
2022/01/15 09:47:37;;;;;;;67.00;18.70;;;;;;;0.89;100.00;102934.13;5029704;28;20422;-81
2022/01/15 09:50:06;;;;;;;43.53;16.77;;;;;;;0.90;100.00;102937.63;5012683;28;20033;-82
2022/01/15 09:52:32;;;;;;;53.20;16.90;;;;;;;0.87;100.00;102933.13;5031050;28;20045;-81
2022/01/15 09:54:58;;;;;;;39.40;16.63;;;;;;;0.90;100.00;102933.28;5031407;28;20065;-82
2022/01/15 09:57:24;;;;;;;44.80;16.30;;;;;;;0.87;100.00;102933.13;4996893;28;20076;-81
2022/01/15 09:59:49;;;;;;;49.30;17.25;;;;;;;0.90;100.00;102935.91;4996767;28;20029;-82
2022/01/15 10:02:16;;;;;;;50.95;17.70;;;;;;;0.92;100.00;102936.00;4980771;28;20064;-81
2022/01/15 10:04:42;;;;;;;53.72;17.70;;;;;;;0.91;100.00;102937.66;4996801;28;20346;-82
2022/01/15 10:07:11;;;;;;;43.47;18.25;;;;;;;0.93;100.00;102933.44;5013370;28;20131;-82
2022/01/15 10:09:37;;;;;;;41.03;18.48;;;;;;;0.96;100.00;102941.41;5015139;28;20040;-81
2022/01/15 10:12:04;;;;;;;37.80;17.38;;;;;;;0.97;100.00;102932.78;5030272;28;20508;-82
2022/01/15 10:14:39;;;;;;;48.45;18.73;;;;;;;0.98;100.00;102942.38;4999780;28;20040;-81
2022/01/15 10:17:22;;;;;;;43.30;20.63;;;;;;;0.99;100.00;102932.84;5032328;28;20053;-82
2022/01/15 10:19:48;;;;;;;40.88;19.92;;;;;;;1.00;100.00;102937.25;5049070;28;20434;-81
2022/01/15 10:22:16;;;;;;;45.25;21.48;;;;;;;1.03;100.00;102945.25;5032734;28;20029;-82
2022/01/15 10:24:51;;;;;;;58.00;21.60;;;;;;;0.99;100.00;102935.44;5028768;28;20076;-81
2022/01/15 10:27:26;;;;;;;43.47;20.30;;;;;;;0.96;100.00;102940.53;5028913;28;20052;-82
2022/01/15 10:30:04;;;;;;;52.95;21.30;;;;;;;0.90;100.00;102932.41;5012787;28;20112;-81
2022/01/15 10:32:32;;;;;;;61.20;21.65;;;;;;;0.85;100.00;102933.03;5033396;28;20171;-81
2022/01/15 10:34:57;;;;;;;52.22;23.70;;;;;;;0.89;100.00;102927.97;5049398;28;20052;-81
2022/01/15 10:37:34;;;;;;;51.22;23.17;;;;;;;0.86;100.00;102921.78;5030791;28;20477;-82
2022/01/15 10:40:10;;;;;;;68.95;21.50;;;;;;;0.89;100.00;102915.84;5045714;28;20071;-81
2022/01/15 10:42:36;;;;;;;58.95;22.23;;;;;;;0.86;100.00;102919.16;5043338;28;20045;-81
2022/01/15 10:45:12;;;;;;;42.45;22.77;;;;;;;0.84;100.00;102915.63;5023319;28;20116;-81
2022/01/15 10:47:49;;;;;;;68.47;20.80;;;;;;;0.88;100.00;102915.75;5044299;28;20060;-81
2022/01/15 10:50:25;;;;;;;42.95;22.65;;;;;;;0.88;100.00;102921.88;5020510;28;20028;-81
2022/01/15 10:52:52;;;;;;;78.18;24.55;;;;;;;0.95;100.00;102923.09;5033429;28;20099;-81
2022/01/15 10:55:24;;;;;;;63.05;24.38;;;;;;;0.94;100.00;102919.59;5017855;28;20053;-81
2022/01/15 10:58:01;;;;;;;47.65;23.23;;;;;;;0.99;100.00;102919.78;5046663;28;20044;-81
2022/01/15 11:00:30;;;;;;;65.13;26.55;;;;;;;1.00;100.00;102913.78;5047849;28;20037;-81
2022/01/15 11:03:05;;;;;;;67.88;25.88;;;;;;;0.97;100.00;102911.91;5018483;28;20041;-81
2022/01/15 11:05:37;;;;;;;63.53;26.77;;;;;;;0.99;100.00;102910.28;5029006;28;20042;-81
2022/01/15 11:08:14;;;;;;;57.13;27.20;;;;;;;1.01;100.00;102897.28;5027203;28;20051;-81
2022/01/15 11:10:41;;;;;;;61.20;28.02;;;;;;;1.05;100.00;102897.53;5028634;28;20029;-81
2022/01/15 11:13:10;;;;;;;57.90;26.48;;;;;;;1.11;100.00;102886.50;5034515;28;20030;-81
2022/01/15 11:15:40;;;;;;;61.08;27.55;;;;;;;1.14;100.00;102893.59;5032604;28;20481;-81
2022/01/15 11:18:08;;;;;;;51.38;26.38;;;;;;;1.13;100.00;102878.75;5032664;28;20037;-81
2022/01/15 11:20:34;;;;;;;58.92;24.60;;;;;;;1.13;100.00;102889.19;5016707;28;20056;-81
2022/01/15 11:23:02;;;;;;;58.45;25.25;;;;;;;1.11;100.00;102878.66;5021574;28;20032;-81
2022/01/15 11:25:28;;;;;;;61.22;23.95;;;;;;;1.13;100.00;102879.66;5032610;28;20038;-81
2022/01/15 11:27:57;;;;;;;54.30;25.75;;;;;;;1.12;100.00;102877.88;5015619;28;20037;-81
2022/01/15 11:30:22;;;;;;;63.42;25.40;;;;;;;1.15;100.00;102878.00;5029937;28;20037;-81